Blue Galaxy — SWDA — position and weather

sailwx.info

Track history (hours):
 
Tides and Currents Weather Stations Pressure Air Temp Water Temp Dewpoint Dewpoint Depression Visibility Wind Speed Wind Dir Waves Ship Positions

Blue Galaxy

Last reported at 2017-Jul-28 02:59 UTC. Time now 2017-Jul-28 04:43 UTC.
Position N 35°33' E 024°13'.

Length 192 m; draft 6.7 m.

Type: Passenger vessel. MMSI: 239672000.

Date/timePositionNaut miles runAvg speedWind from/ knotsBaromVisibWave heightAir tempDewpointWater temp
2017-Jul-28 02:59N 35°33' E 024°13'12619.4
2017-Jul-27 20:29N 37°37' E 023°43'919.3
2017-Jul-27 20:00N 37°46' E 023°39'918.4
2017-Jul-27 19:30N 37°55' E 023°37'2 4.5
2017-Jul-27 19:00N 37°57' E 023°38'0 0.0
2017-Jul-27 18:28N 37°57' E 023°38'0 0.0
2017-Jul-27 17:58N 37°57' E 023°38'0 0.0
2017-Jul-27 17:28N 37°57' E 023°38'0 0.0
2017-Jul-27 16:58N 37°57' E 023°38'0 0.0
2017-Jul-27 16:28N 37°57' E 023°38'0 0.0
2017-Jul-27 15:58N 37°57' E 023°38'0 0.0
2017-Jul-27 15:28N 37°57' E 023°38'0 0.8
2017-Jul-27 15:01N 37°56' E 023°38'1817.5
2017-Jul-27 14:00N 37°40' E 023°46'1020.2
2017-Jul-27 13:29N 37°30' E 023°48'6 0.4
2017-Jul-26 20:32N 37°35' E 023°44'019.7
2017-Jul-26 20:30N 37°35' E 023°44'1019.5
2017-Jul-26 20:00N 37°45' E 023°40'918.8
2017-Jul-26 19:30N 37°54' E 023°37'3 6.3
2017-Jul-26 19:00N 37°57' E 023°38'0 0.0
2017-Jul-26 18:28N 37°57' E 023°38'0 0.0
2017-Jul-26 17:58N 37°57' E 023°38'0 0.0
2017-Jul-26 17:28N 37°57' E 023°38'0 0.0
2017-Jul-26 16:58N 37°57' E 023°38'0 0.0
2017-Jul-26 16:28N 37°57' E 023°38'0 0.0
2017-Jul-26 15:58N 37°57' E 023°38'0 0.0
2017-Jul-26 15:28N 37°57' E 023°38'0 0.6
2017-Jul-26 15:01N 37°57' E 023°38'1717.2
2017-Jul-26 14:01N 37°40' E 023°46'1020.2
2017-Jul-26 13:30N 37°30' E 023°48'1020.6
2017-Jul-26 13:00N 37°20' E 023°50'1120.8
2017-Jul-26 12:28N 37°09' E 023°52'919.9
2017-Jul-26 12:00N 37°00' E 023°54'1020.4
2017-Jul-26 11:30N 36°50' E 023°56'1020.2
2017-Jul-26 11:00N 36°40' E 023°58'1420.0
2017-Jul-26 10:19N 36°27' E 024°01'4720.4
2017-Jul-26 08:02N 35°41' E 024°12'120.0
2017-Jul-26 08:00N 35°40' E 024°12'106 9.8
2017-Jul-25 21:07N 37°24' E 023°46'1019.4
2017-Jul-25 20:35N 37°35' E 023°44'219.8
2017-Jul-25 20:30N 37°36' E 023°43'1020.0
2017-Jul-25 20:01N 37°45' E 023°39'918.7
2017-Jul-25 19:30N 37°55' E 023°37'3 5.1
2017-Jul-25 19:01N 37°57' E 023°38'0 0.0
2017-Jul-25 18:31N 37°57' E 023°38'0 0.0
2017-Jul-25 18:00N 37°57' E 023°38'0 0.0
2017-Jul-25 17:31N 37°57' E 023°38'0 0.0
2017-Jul-25 17:01N 37°57' E 023°38'0 0.0
2017-Jul-25 16:31N 37°57' E 023°38'0 0.0
2017-Jul-25 16:01N 37°57' E 023°38'0 0.0
2017-Jul-25 15:30N 37°57' E 023°38'0 0.0
2017-Jul-25 15:01N 37°57' E 023°38'0 0.0
2017-Jul-25 14:01N 37°57' E 023°38'0 0.0
2017-Jul-25 13:30N 37°57' E 023°38'0 0.0
2017-Jul-25 13:00N 37°57' E 023°38'0 0.0
2017-Jul-25 12:30N 37°57' E 023°38'0 0.0
2017-Jul-25 12:00N 37°57' E 023°38'0 0.0
2017-Jul-25 11:30N 37°57' E 023°38'0 0.0
2017-Jul-25 11:01N 37°57' E 023°38'0 0.0
2017-Jul-25 10:31N 37°57' E 023°38'0 0.0
2017-Jul-25 10:01N 37°57' E 023°38'0 0.0
2017-Jul-25 09:30N 37°57' E 023°38'0 0.0
2017-Jul-25 09:01N 37°57' E 023°38'0 0.0
2017-Jul-25 08:30N 37°57' E 023°38'0 0.0
2017-Jul-25 08:01N 37°57' E 023°38'0 0.0
2017-Jul-25 07:30N 37°57' E 023°38'0 0.0
2017-Jul-25 07:01N 37°57' E 023°38'0 0.0
2017-Jul-25 06:30N 37°57' E 023°38'0 0.0
2017-Jul-25 06:00N 37°57' E 023°38'0 0.0
2017-Jul-25 05:31N 37°57' E 023°38'0 0.0
2017-Jul-25 05:00N 37°57' E 023°38'0 0.0
2017-Jul-25 04:30N 37°57' E 023°38'0 0.0
2017-Jul-25 04:00N 37°57' E 023°38'0 0.0
2017-Jul-25 03:31N 37°57' E 023°38'0 0.6
2017-Jul-25 03:01N 37°57' E 023°38'714.4
2017-Jul-25 02:30N 37°50' E 023°41'1019.6
2017-Jul-25 02:00N 37°41' E 023°46'1019.9
2017-Jul-25 01:30N 37°31' E 023°48'1020.3
2017-Jul-25 01:01N 37°21' E 023°50'1620.4
2017-Jul-25 00:12N 37°05' E 023°53'8920.5
2017-Jul-24 19:51N 35°37' E 024°13'619.1
2017-Jul-24 19:31N 35°30' E 024°12'1 0.1
2017-Jul-24 02:51N 35°31' E 024°13'12119.6
2017-Jul-23 20:42N 37°30' E 023°46'418.5
2017-Jul-23 20:30N 37°33' E 023°45'919.3
2017-Jul-23 20:01N 37°42' E 023°41'1019.2
2017-Jul-23 19:31N 37°52' E 023°37'510.9
2017-Jul-23 19:00N 37°57' E 023°38'0 0.0
2017-Jul-23 18:28N 37°57' E 023°38'0 0.0
2017-Jul-23 17:58N 37°57' E 023°38'0 0.0
2017-Jul-23 17:28N 37°57' E 023°38'0 0.0
2017-Jul-23 16:58N 37°57' E 023°38'0 0.0
2017-Jul-23 16:28N 37°57' E 023°38'0 0.0
2017-Jul-23 15:58N 37°57' E 023°38'0 0.0
2017-Jul-23 15:28N 37°57' E 023°38'0 0.6
2017-Jul-23 15:00N 37°57' E 023°38'714.2
2017-Jul-23 14:30N 37°50' E 023°40'1019.8
2017-Jul-23 14:00N 37°41' E 023°46'1020.1
2017-Jul-23 13:30N 37°31' E 023°48'1520.0
2017-Jul-23 12:45N 37°16' E 023°51'620.8
2017-Jul-23 12:27N 37°10' E 023°52'28 1.7
2017-Jul-22 20:22N 37°36' E 023°43'719.7
2017-Jul-22 20:00N 37°43' E 023°40'1019.4
2017-Jul-22 19:30N 37°52' E 023°36'5 9.9
2017-Jul-22 19:00N 37°57' E 023°38'0 0.0
2017-Jul-22 18:30N 37°57' E 023°38'0 0.0
2017-Jul-22 18:00N 37°57' E 023°38'0 0.0
2017-Jul-22 17:30N 37°57' E 023°38'0 0.0
2017-Jul-22 16:57N 37°57' E 023°38'0 0.0
2017-Jul-22 16:30N 37°57' E 023°38'0 0.0
2017-Jul-22 16:00N 37°57' E 023°38'0 0.3
2017-Jul-22 15:30N 37°57' E 023°38'4 8.7
2017-Jul-22 15:00N 37°52' E 023°38'25 1.4
2017-Jul-21 20:48N 37°28' E 023°46'619.1
2017-Jul-21 20:31N 37°34' E 023°44'1019.7
2017-Jul-21 20:01N 37°43' E 023°40'1019.3
2017-Jul-21 19:31N 37°52' E 023°37'5 9.4
2017-Jul-21 19:00N 37°57' E 023°38'0 0.0
2017-Jul-21 18:30N 37°57' E 023°38'0 0.0
2017-Jul-21 18:00N 37°57' E 023°38'0 0.0
2017-Jul-21 17:30N 37°57' E 023°38'0 0.0
2017-Jul-21 17:00N 37°57' E 023°38'0 0.0
2017-Jul-21 16:30N 37°57' E 023°38'0 0.0
2017-Jul-21 16:00N 37°57' E 023°38'0 0.0
2017-Jul-21 15:30N 37°57' E 023°38'2 3.3
2017-Jul-21 15:01N 37°56' E 023°37'1019.0
2017-Jul-21 14:30N 37°47' E 023°41'1020.4
2017-Jul-21 14:00N 37°38' E 023°46'3 0.2
2017-Jul-20 20:32N 37°36' E 023°43'119.5
2017-Jul-20 20:30N 37°36' E 023°43'1019.8
2017-Jul-20 20:01N 37°46' E 023°39'918.9
2017-Jul-20 19:30N 37°55' E 023°37'2 4.8
2017-Jul-20 19:00N 37°57' E 023°38'0 0.0
2017-Jul-20 18:29N 37°57' E 023°38'0 0.0
2017-Jul-20 17:59N 37°57' E 023°38'0 0.0
2017-Jul-20 17:29N 37°57' E 023°38'0 0.0
2017-Jul-20 16:56N 37°57' E 023°38'0 0.0
2017-Jul-20 16:29N 37°57' E 023°38'0 0.0
2017-Jul-20 15:56N 37°57' E 023°38'0 0.0
2017-Jul-20 15:30N 37°57' E 023°38'2 3.3
2017-Jul-20 15:01N 37°56' E 023°37'1919.4
2017-Jul-20 14:00N 37°38' E 023°46'5 0.3
2017-Jul-19 20:38N 37°34' E 023°44'219.9
2017-Jul-19 20:30N 37°36' E 023°43'1020.0
2017-Jul-19 20:00N 37°45' E 023°39'919.0
2017-Jul-19 19:30N 37°54' E 023°36'3 5.5
2017-Jul-19 19:00N 37°57' E 023°38'0 0.0
2017-Jul-19 18:28N 37°57' E 023°38'0 0.0
2017-Jul-19 17:58N 37°57' E 023°38'0 0.0
2017-Jul-19 17:28N 37°57' E 023°38'0 0.0
2017-Jul-19 16:58N 37°57' E 023°38'0 0.0
2017-Jul-19 16:28N 37°57' E 023°38'0 0.0
2017-Jul-19 15:58N 37°57' E 023°38'0 0.0
2017-Jul-19 15:30N 37°57' E 023°38'3 6.0
2017-Jul-19 15:01N 37°54' E 023°38'1019.6
2017-Jul-19 14:31N 37°45' E 023°43'1019.8
2017-Jul-19 13:59N 37°35' E 023°47'3 0.2
2017-Jul-18 20:30N 37°36' E 023°43'919.4
2017-Jul-18 20:00N 37°45' E 023°39'919.0
2017-Jul-18 19:30N 37°54' E 023°37'3 6.4
2017-Jul-18 19:01N 37°57' E 023°38'0 0.0
2017-Jul-18 18:30N 37°57' E 023°38'0 0.0
2017-Jul-18 18:01N 37°57' E 023°38'0 0.0
2017-Jul-18 17:29N 37°57' E 023°38'0 0.0
2017-Jul-18 16:59N 37°57' E 023°38'0 0.0
2017-Jul-18 16:29N 37°57' E 023°38'0 0.0
2017-Jul-18 15:59N 37°57' E 023°38'0 0.0
2017-Jul-18 15:29N 37°57' E 023°38'0 0.0
2017-Jul-18 14:59N 37°57' E 023°38'0 0.0
2017-Jul-18 13:59N 37°57' E 023°38'0 0.0
2017-Jul-18 13:29N 37°57' E 023°38'0 0.0
2017-Jul-18 12:59N 37°57' E 023°38'0 0.0
2017-Jul-18 12:29N 37°57' E 023°38'0 0.0
2017-Jul-18 11:59N 37°57' E 023°38'0 0.0
2017-Jul-18 11:29N 37°57' E 023°38'0 0.0
2017-Jul-18 10:59N 37°57' E 023°38'0 0.0
2017-Jul-18 10:29N 37°57' E 023°38'0 0.0
2017-Jul-18 09:59N 37°57' E 023°38'0 0.0
2017-Jul-18 09:29N 37°57' E 023°38'0 0.0
2017-Jul-18 08:59N 37°57' E 023°38'0 0.0
2017-Jul-18 08:29N 37°57' E 023°38'0 0.0
2017-Jul-18 07:59N 37°57' E 023°38'0 0.0
2017-Jul-18 07:29N 37°57' E 023°38'0 0.0
2017-Jul-18 06:59N 37°57' E 023°38'0 0.0
2017-Jul-18 06:29N 37°57' E 023°38'0 0.0
2017-Jul-18 05:59N 37°57' E 023°38'0 0.0
2017-Jul-18 05:29N 37°57' E 023°38'0 0.0
2017-Jul-18 04:59N 37°57' E 023°38'0 0.0
2017-Jul-18 04:29N 37°57' E 023°38'0 0.0
2017-Jul-18 03:59N 37°57' E 023°38'0 0.0
2017-Jul-18 03:30N 37°57' E 023°38'0 0.8
2017-Jul-18 03:01N 37°56' E 023°38'  
Track history (hours):
 
Tides and Currents Weather Stations Pressure Air Temp Water Temp Dewpoint Dewpoint Depression Visibility Wind Speed Wind Dir Waves Ship Positions

Blue Galaxy

Last reported at 2017-Jul-28 02:59 UTC. Time now 2017-Jul-28 04:43 UTC.
Position N 35°33' E 024°13'.

Length 192 m; draft 6.7 m.

Type: Passenger vessel. MMSI: 239672000.

Date/timePositionNaut miles runAvg speedWind from/ knotsBaromVisibWave heightAir tempDewpointWater temp
2017-Jul-28 02:59N 35°33' E 024°13'12619.4
2017-Jul-27 20:29N 37°37' E 023°43'919.3
2017-Jul-27 20:00N 37°46' E 023°39'918.4
2017-Jul-27 19:30N 37°55' E 023°37'2 4.5
2017-Jul-27 19:00N 37°57' E 023°38'0 0.0
2017-Jul-27 18:28N 37°57' E 023°38'0 0.0
2017-Jul-27 17:58N 37°57' E 023°38'0 0.0
2017-Jul-27 17:28N 37°57' E 023°38'0 0.0
2017-Jul-27 16:58N 37°57' E 023°38'0 0.0
2017-Jul-27 16:28N 37°57' E 023°38'0 0.0
2017-Jul-27 15:58N 37°57' E 023°38'0 0.0
2017-Jul-27 15:28N 37°57' E 023°38'0 0.8
2017-Jul-27 15:01N 37°56' E 023°38'1817.5
2017-Jul-27 14:00N 37°40' E 023°46'1020.2
2017-Jul-27 13:29N 37°30' E 023°48'6 0.4
2017-Jul-26 20:32N 37°35' E 023°44'019.7
2017-Jul-26 20:30N 37°35' E 023°44'1019.5
2017-Jul-26 20:00N 37°45' E 023°40'918.8
2017-Jul-26 19:30N 37°54' E 023°37'3 6.3
2017-Jul-26 19:00N 37°57' E 023°38'0 0.0
2017-Jul-26 18:28N 37°57' E 023°38'0 0.0
2017-Jul-26 17:58N 37°57' E 023°38'0 0.0
2017-Jul-26 17:28N 37°57' E 023°38'0 0.0
2017-Jul-26 16:58N 37°57' E 023°38'0 0.0
2017-Jul-26 16:28N 37°57' E 023°38'0 0.0
2017-Jul-26 15:58N 37°57' E 023°38'0 0.0
2017-Jul-26 15:28N 37°57' E 023°38'0 0.6
2017-Jul-26 15:01N 37°57' E 023°38'1717.2
2017-Jul-26 14:01N 37°40' E 023°46'1020.2
2017-Jul-26 13:30N 37°30' E 023°48'1020.6
2017-Jul-26 13:00N 37°20' E 023°50'1120.8
2017-Jul-26 12:28N 37°09' E 023°52'919.9
2017-Jul-26 12:00N 37°00' E 023°54'1020.4
2017-Jul-26 11:30N 36°50' E 023°56'1020.2
2017-Jul-26 11:00N 36°40' E 023°58'1420.0
2017-Jul-26 10:19N 36°27' E 024°01'4720.4
2017-Jul-26 08:02N 35°41' E 024°12'120.0
2017-Jul-26 08:00N 35°40' E 024°12'106 9.8
2017-Jul-25 21:07N 37°24' E 023°46'1019.4
2017-Jul-25 20:35N 37°35' E 023°44'219.8
2017-Jul-25 20:30N 37°36' E 023°43'1020.0
2017-Jul-25 20:01N 37°45' E 023°39'918.7
2017-Jul-25 19:30N 37°55' E 023°37'3 5.1
2017-Jul-25 19:01N 37°57' E 023°38'0 0.0
2017-Jul-25 18:31N 37°57' E 023°38'0 0.0
2017-Jul-25 18:00N 37°57' E 023°38'0 0.0
2017-Jul-25 17:31N 37°57' E 023°38'0 0.0
2017-Jul-25 17:01N 37°57' E 023°38'0 0.0
2017-Jul-25 16:31N 37°57' E 023°38'0 0.0
2017-Jul-25 16:01N 37°57' E 023°38'0 0.0
2017-Jul-25 15:30N 37°57' E 023°38'0 0.0
2017-Jul-25 15:01N 37°57' E 023°38'0 0.0
2017-Jul-25 14:01N 37°57' E 023°38'0 0.0
2017-Jul-25 13:30N 37°57' E 023°38'0 0.0
2017-Jul-25 13:00N 37°57' E 023°38'0 0.0
2017-Jul-25 12:30N 37°57' E 023°38'0 0.0
2017-Jul-25 12:00N 37°57' E 023°38'0 0.0
2017-Jul-25 11:30N 37°57' E 023°38'0 0.0
2017-Jul-25 11:01N 37°57' E 023°38'0 0.0
2017-Jul-25 10:31N 37°57' E 023°38'0 0.0
2017-Jul-25 10:01N 37°57' E 023°38'0 0.0
2017-Jul-25 09:30N 37°57' E 023°38'0 0.0
2017-Jul-25 09:01N 37°57' E 023°38'0 0.0
2017-Jul-25 08:30N 37°57' E 023°38'0 0.0
2017-Jul-25 08:01N 37°57' E 023°38'0 0.0
2017-Jul-25 07:30N 37°57' E 023°38'0 0.0
2017-Jul-25 07:01N 37°57' E 023°38'0 0.0
2017-Jul-25 06:30N 37°57' E 023°38'0 0.0
2017-Jul-25 06:00N 37°57' E 023°38'0 0.0
2017-Jul-25 05:31N 37°57' E 023°38'0 0.0
2017-Jul-25 05:00N 37°57' E 023°38'0 0.0
2017-Jul-25 04:30N 37°57' E 023°38'0 0.0
2017-Jul-25 04:00N 37°57' E 023°38'0 0.0
2017-Jul-25 03:31N 37°57' E 023°38'0 0.6
2017-Jul-25 03:01N 37°57' E 023°38'714.4
2017-Jul-25 02:30N 37°50' E 023°41'1019.6
2017-Jul-25 02:00N 37°41' E 023°46'1019.9
2017-Jul-25 01:30N 37°31' E 023°48'1020.3
2017-Jul-25 01:01N 37°21' E 023°50'1620.4
2017-Jul-25 00:12N 37°05' E 023°53'8920.5
2017-Jul-24 19:51N 35°37' E 024°13'619.1
2017-Jul-24 19:31N 35°30' E 024°12'1 0.1
2017-Jul-24 02:51N 35°31' E 024°13'12119.6
2017-Jul-23 20:42N 37°30' E 023°46'418.5
2017-Jul-23 20:30N 37°33' E 023°45'919.3
2017-Jul-23 20:01N 37°42' E 023°41'1019.2
2017-Jul-23 19:31N 37°52' E 023°37'510.9
2017-Jul-23 19:00N 37°57' E 023°38'0 0.0
2017-Jul-23 18:28N 37°57' E 023°38'0 0.0
2017-Jul-23 17:58N 37°57' E 023°38'0 0.0
2017-Jul-23 17:28N 37°57' E 023°38'0 0.0
2017-Jul-23 16:58N 37°57' E 023°38'0 0.0
2017-Jul-23 16:28N 37°57' E 023°38'0 0.0
2017-Jul-23 15:58N 37°57' E 023°38'0 0.0
2017-Jul-23 15:28N 37°57' E 023°38'0 0.6
2017-Jul-23 15:00N 37°57' E 023°38'714.2
2017-Jul-23 14:30N 37°50' E 023°40'1019.8
2017-Jul-23 14:00N 37°41' E 023°46'1020.1
2017-Jul-23 13:30N 37°31' E 023°48'1520.0
2017-Jul-23 12:45N 37°16' E 023°51'620.8
2017-Jul-23 12:27N 37°10' E 023°52'28 1.7
2017-Jul-22 20:22N 37°36' E 023°43'719.7
2017-Jul-22 20:00N 37°43' E 023°40'1019.4
2017-Jul-22 19:30N 37°52' E 023°36'5 9.9
2017-Jul-22 19:00N 37°57' E 023°38'0 0.0
2017-Jul-22 18:30N 37°57' E 023°38'0 0.0
2017-Jul-22 18:00N 37°57' E 023°38'0 0.0
2017-Jul-22 17:30N 37°57' E 023°38'0 0.0
2017-Jul-22 16:57N 37°57' E 023°38'0 0.0
2017-Jul-22 16:30N 37°57' E 023°38'0 0.0
2017-Jul-22 16:00N 37°57' E 023°38'0 0.3
2017-Jul-22 15:30N 37°57' E 023°38'4 8.7
2017-Jul-22 15:00N 37°52' E 023°38'25 1.4
2017-Jul-21 20:48N 37°28' E 023°46'619.1
2017-Jul-21 20:31N 37°34' E 023°44'1019.7
2017-Jul-21 20:01N 37°43' E 023°40'1019.3
2017-Jul-21 19:31N 37°52' E 023°37'5 9.4
2017-Jul-21 19:00N 37°57' E 023°38'0 0.0
2017-Jul-21 18:30N 37°57' E 023°38'0 0.0
2017-Jul-21 18:00N 37°57' E 023°38'0 0.0
2017-Jul-21 17:30N 37°57' E 023°38'0 0.0
2017-Jul-21 17:00N 37°57' E 023°38'0 0.0
2017-Jul-21 16:30N 37°57' E 023°38'0 0.0
2017-Jul-21 16:00N 37°57' E 023°38'0 0.0
2017-Jul-21 15:30N 37°57' E 023°38'2 3.3
2017-Jul-21 15:01N 37°56' E 023°37'1019.0
2017-Jul-21 14:30N 37°47' E 023°41'1020.4
2017-Jul-21 14:00N 37°38' E 023°46'3 0.2
2017-Jul-20 20:32N 37°36' E 023°43'119.5
2017-Jul-20 20:30N 37°36' E 023°43'1019.8
2017-Jul-20 20:01N 37°46' E 023°39'918.9
2017-Jul-20 19:30N 37°55' E 023°37'2 4.8
2017-Jul-20 19:00N 37°57' E 023°38'0 0.0
2017-Jul-20 18:29N 37°57' E 023°38'0 0.0
2017-Jul-20 17:59N 37°57' E 023°38'0 0.0
2017-Jul-20 17:29N 37°57' E 023°38'0 0.0
2017-Jul-20 16:56N 37°57' E 023°38'0 0.0
2017-Jul-20 16:29N 37°57' E 023°38'0 0.0
2017-Jul-20 15:56N 37°57' E 023°38'0 0.0
2017-Jul-20 15:30N 37°57' E 023°38'2 3.3
2017-Jul-20 15:01N 37°56' E 023°37'1919.4
2017-Jul-20 14:00N 37°38' E 023°46'5 0.3
2017-Jul-19 20:38N 37°34' E 023°44'219.9
2017-Jul-19 20:30N 37°36' E 023°43'1020.0
2017-Jul-19 20:00N 37°45' E 023°39'919.0
2017-Jul-19 19:30N 37°54' E 023°36'3 5.5
2017-Jul-19 19:00N 37°57' E 023°38'0 0.0
2017-Jul-19 18:28N 37°57' E 023°38'0 0.0
2017-Jul-19 17:58N 37°57' E 023°38'0 0.0
2017-Jul-19 17:28N 37°57' E 023°38'0 0.0
2017-Jul-19 16:58N 37°57' E 023°38'0 0.0
2017-Jul-19 16:28N 37°57' E 023°38'0 0.0
2017-Jul-19 15:58N 37°57' E 023°38'0 0.0
2017-Jul-19 15:30N 37°57' E 023°38'3 6.0
2017-Jul-19 15:01N 37°54' E 023°38'1019.6
2017-Jul-19 14:31N 37°45' E 023°43'1019.8
2017-Jul-19 13:59N 37°35' E 023°47'3 0.2
2017-Jul-18 20:30N 37°36' E 023°43'919.4
2017-Jul-18 20:00N 37°45' E 023°39'919.0
2017-Jul-18 19:30N 37°54' E 023°37'3 6.4
2017-Jul-18 19:01N 37°57' E 023°38'0 0.0
2017-Jul-18 18:30N 37°57' E 023°38'0 0.0
2017-Jul-18 18:01N 37°57' E 023°38'0 0.0
2017-Jul-18 17:29N 37°57' E 023°38'0 0.0
2017-Jul-18 16:59N 37°57' E 023°38'0 0.0
2017-Jul-18 16:29N 37°57' E 023°38'0 0.0
2017-Jul-18 15:59N 37°57' E 023°38'0 0.0
2017-Jul-18 15:29N 37°57' E 023°38'0 0.0
2017-Jul-18 14:59N 37°57' E 023°38'0 0.0
2017-Jul-18 13:59N 37°57' E 023°38'0 0.0
2017-Jul-18 13:29N 37°57' E 023°38'0 0.0
2017-Jul-18 12:59N 37°57' E 023°38'0 0.0
2017-Jul-18 12:29N 37°57' E 023°38'0 0.0
2017-Jul-18 11:59N 37°57' E 023°38'0 0.0
2017-Jul-18 11:29N 37°57' E 023°38'0 0.0
2017-Jul-18 10:59N 37°57' E 023°38'0 0.0
2017-Jul-18 10:29N 37°57' E 023°38'0 0.0
2017-Jul-18 09:59N 37°57' E 023°38'0 0.0
2017-Jul-18 09:29N 37°57' E 023°38'0 0.0
2017-Jul-18 08:59N 37°57' E 023°38'0 0.0
2017-Jul-18 08:29N 37°57' E 023°38'0 0.0
2017-Jul-18 07:59N 37°57' E 023°38'0 0.0
2017-Jul-18 07:29N 37°57' E 023°38'0 0.0
2017-Jul-18 06:59N 37°57' E 023°38'0 0.0
2017-Jul-18 06:29N 37°57' E 023°38'0 0.0
2017-Jul-18 05:59N 37°57' E 023°38'0 0.0
2017-Jul-18 05:29N 37°57' E 023°38'0 0.0
2017-Jul-18 04:59N 37°57' E 023°38'0 0.0
2017-Jul-18 04:29N 37°57' E 023°38'0 0.0
2017-Jul-18 03:59N 37°57' E 023°38'0 0.0
2017-Jul-18 03:30N 37°57' E 023°38'0 0.8
2017-Jul-18 03:01N 37°56' E 023°38'  

Dump ship's entire track history